Time;durP1;ratioP1;P1;durP2;ratioP2;P2;SDS_P1;SDS_P2;PMS_P1;PMS_P2;Temp;Humidity;BMP_temperature;BMP_pressure;BME280_temperature;BME280_humidity;BME280_pressure;Samples;Min_cycle;Max_cycle;Signal;HPM_P1;HPM_P2
2022/03/23 00:01:00;;;;;;;;;;;23.20;33.60;;;;;;1586874;74;763;-67
2022/03/23 00:03:03;;;;;;;;;;;23.20;33.60;;;;;;1591410;74;744;-68
2022/03/23 00:05:05;;;;;;;;;;;23.20;33.60;;;;;;1594650;73;1899;-69
2022/03/23 00:07:07;;;;;;;;;;;23.10;33.70;;;;;;1595509;74;1167;-69
2022/03/23 00:09:09;;;;;;;;;;;23.00;33.60;;;;;;1602916;73;748;-66
2022/03/23 00:11:11;;;;;;;;;;;23.10;33.70;;;;;;1611414;73;777;-67
2022/03/23 00:13:13;;;;;;;;;;;23.10;33.80;;;;;;1611387;73;732;-67
2022/03/23 00:15:15;;;;;;;;;;;23.20;33.90;;;;;;1599583;73;710;-66
2022/03/23 00:17:17;;;;;;;;;;;23.20;33.90;;;;;;1595801;74;1106;-67
2022/03/23 00:19:18;;;;;;;;;;;23.10;33.90;;;;;;1595774;74;681;-68
2022/03/23 00:21:21;;;;;;;;;;;23.20;33.90;;;;;;1595791;74;694;-72
2022/03/23 00:23:23;;;;;;;;;;;23.20;34.00;;;;;;1594924;73;712;-67
2022/03/23 00:25:26;;;;;;;;;;;23.20;34.00;;;;;;1594823;73;1935;-66
2022/03/23 00:27:27;;;;;;;;;;;23.20;34.00;;;;;;1595716;74;1088;-67
2022/03/23 00:29:29;;;;;;;;;;;23.20;34.00;;;;;;1595822;74;708;-63
2022/03/23 00:31:31;;;;;;;;;;;23.20;34.00;;;;;;1595655;74;592;-67
2022/03/23 00:33:33;;;;;;;;;;;23.30;34.10;;;;;;1594720;73;709;-68
2022/03/23 00:35:35;;;;;;;;;;;23.30;33.90;;;;;;1587251;74;734;-70
2022/03/23 00:37:37;;;;;;;;;;;23.30;34.00;;;;;;1590170;74;1308;-67
2022/03/23 00:39:39;;;;;;;;;;;23.30;34.00;;;;;;1580238;74;742;-68
2022/03/23 00:41:41;;;;;;;;;;;23.30;34.00;;;;;;1583786;73;716;-67
2022/03/23 00:43:43;;;;;;;;;;;23.30;34.10;;;;;;1596934;74;714;-67
2022/03/23 00:45:44;;;;;;;;;;;23.30;34.10;;;;;;1590256;73;1932;-68
2022/03/23 00:47:48;;;;;;;;;;;23.20;34.00;;;;;;1590681;74;1127;-67
2022/03/23 00:49:49;;;;;;;;;;;23.20;34.00;;;;;;1595808;74;795;-67
2022/03/23 00:51:53;;;;;;;;;;;23.20;34.00;;;;;;1590480;73;781;-67
2022/03/23 00:53:55;;;;;;;;;;;23.30;34.10;;;;;;1591590;74;998;-68
2022/03/23 00:55:57;;;;;;;;;;;23.30;34.10;;;;;;1596067;73;654;-68
2022/03/23 00:57:58;;;;;;;;;;;23.30;34.10;;;;;;1591193;74;1076;-70
2022/03/23 01:00:00;;;;;;;;;;;23.30;34.10;;;;;;1589034;74;696;-70
2022/03/23 01:02:02;;;;;;;;;;;23.30;34.10;;;;;;1597029;74;711;-68
2022/03/23 01:04:05;;;;;;;;;;;23.30;34.10;;;;;;1595683;73;731;-68
2022/03/23 01:06:08;;;;;;;;;;;23.30;34.10;;;;;;1587412;73;1903;-69
2022/03/23 01:08:10;;;;;;;;;;;23.20;34.00;;;;;;1589404;74;1152;-68
2022/03/23 01:10:12;;;;;;;;;;;23.30;34.10;;;;;;1596485;73;704;-68
2022/03/23 01:12:14;;;;;;;;;;;23.30;34.10;;;;;;1596299;74;773;-68
2022/03/23 01:14:16;;;;;;;;;;;23.30;34.10;;;;;;1591541;73;742;-70
2022/03/23 01:16:18;;;;;;;;;;;23.30;34.10;;;;;;1596630;74;697;-70
2022/03/23 01:18:20;;;;;;;;;;;23.30;34.10;;;;;;1592601;74;1130;-68
2022/03/23 01:20:22;;;;;;;;;;;23.20;34.10;;;;;;1594019;74;722;-69
2022/03/23 01:22:24;;;;;;;;;;;23.10;34.10;;;;;;1585629;74;725;-68
2022/03/23 01:24:26;;;;;;;;;;;23.30;34.20;;;;;;1594454;73;729;-67
2022/03/23 01:26:28;;;;;;;;;;;23.20;34.20;;;;;;1596163;74;1932;-69
2022/03/23 01:28:29;;;;;;;;;;;23.20;34.30;;;;;;1593355;74;1107;-67
2022/03/23 01:30:31;;;;;;;;;;;23.20;34.20;;;;;;1593553;73;838;-67
2022/03/23 01:32:34;;;;;;;;;;;23.20;34.30;;;;;;1592549;74;730;-68
2022/03/23 01:34:35;;;;;;;;;;;23.30;34.40;;;;;;1595380;74;746;-67
2022/03/23 01:36:37;;;;;;;;;;;23.20;34.40;;;;;;1594699;74;1204;-66
2022/03/23 01:38:39;;;;;;;;;;;23.20;34.40;;;;;;1589449;74;717;-69
2022/03/23 01:40:41;;;;;;;;;;;23.20;34.40;;;;;;1590782;74;729;-68
2022/03/23 01:42:43;;;;;;;;;;;23.10;34.50;;;;;;1595501;73;720;-69
2022/03/23 01:44:45;;;;;;;;;;;23.30;34.50;;;;;;1595513;74;692;-67
2022/03/23 01:47:04;;;;;;;;;;;23.30;34.40;;;;;;1590796;73;1952;-67
2022/03/23 01:49:06;;;;;;;;;;;23.40;34.30;;;;;;1587884;74;722;-68
2022/03/23 01:51:07;;;;;;;;;;;23.40;34.20;;;;;;1593967;73;785;-69
2022/03/23 01:53:09;;;;;;;;;;;23.40;34.20;;;;;;1587989;74;719;-66
2022/03/23 01:55:13;;;;;;;;;;;23.50;34.30;;;;;;1594835;73;750;-67
2022/03/23 01:57:15;;;;;;;;;;;23.50;34.30;;;;;;1596923;74;1127;-67
2022/03/23 01:59:17;;;;;;;;;;;23.50;34.30;;;;;;1586512;74;683;-68
2022/03/23 02:01:19;;;;;;;;;;;23.50;34.30;;;;;;1595461;74;734;-67
2022/03/23 02:03:21;;;;;;;;;;;23.40;34.10;;;;;;1592316;73;731;-67
2022/03/23 02:05:23;;;;;;;;;;;23.50;34.30;;;;;;1585844;74;727;-67
2022/03/23 02:07:25;;;;;;;;;;;23.40;34.10;;;;;;1591643;74;1941;-69
2022/03/23 02:09:27;;;;;;;;;;;23.40;34.20;;;;;;1595682;73;751;-67
2022/03/23 02:11:30;;;;;;;;;;;23.50;34.40;;;;;;1591581;73;746;-67
2022/03/23 02:13:32;;;;;;;;;;;23.40;34.30;;;;;;1590751;74;805;-66
2022/03/23 02:15:34;;;;;;;;;;;23.30;34.40;;;;;;1592050;72;2089;-69
2022/03/23 02:17:35;;;;;;;;;;;23.30;34.40;;;;;;1600503;73;703;-66
2022/03/23 02:19:37;;;;;;;;;;;23.40;34.40;;;;;;1607170;73;783;-67
2022/03/23 02:21:43;;;;;;;;;;;23.40;34.30;;;;;;1603638;73;827;-67
2022/03/23 02:23:45;;;;;;;;;;;23.30;34.40;;;;;;1607687;73;708;-66
2022/03/23 02:25:47;;;;;;;;;;;23.40;34.40;;;;;;1614970;72;1933;-66
2022/03/23 02:27:48;;;;;;;;;;;23.30;34.50;;;;;;1613675;72;724;-65
2022/03/23 02:29:51;;;;;;;;;;;23.40;34.40;;;;;;1615559;72;715;-63
2022/03/23 02:31:53;;;;;;;;;;;23.40;34.40;;;;;;1577534;73;647;-69
2022/03/23 02:33:55;;;;;;;;;;;23.50;34.40;;;;;;1614907;72;692;-65
2022/03/23 02:35:57;;;;;;;;;;;23.60;34.30;;;;;;1602075;72;1191;-65
2022/03/23 02:37:59;;;;;;;;;;;23.50;34.30;;;;;;1612968;72;723;-65
2022/03/23 02:40:01;;;;;;;;;;;23.60;34.30;;;;;;1617243;72;744;-65
2022/03/23 02:42:03;;;;;;;;;;;23.50;34.30;;;;;;1615192;72;776;-66
2022/03/23 02:44:06;;;;;;;;;;;23.50;34.30;;;;;;1612697;72;813;-65
2022/03/23 02:46:14;;;;;;;;;;;23.60;34.30;;;;;;1604560;73;1924;-66
2022/03/23 02:48:16;;;;;;;;;;;23.60;34.40;;;;;;1616565;73;664;-67
2022/03/23 02:50:18;;;;;;;;;;;23.50;34.30;;;;;;1619847;73;676;-66
2022/03/23 02:52:20;;;;;;;;;;;23.60;34.20;;;;;;1621189;73;595;-67
2022/03/23 03:03:52;;;;;;;;;;;23.30;34.60;;;;;;1593345;74;671;-67
2022/03/23 03:05:54;;;;;;;;;;;23.40;34.70;;;;;;1593298;74;1945;-69
2022/03/23 03:10:16;;;;;;;;;;;23.30;34.90;;;;;;1605704;73;641;-67
2022/03/23 03:12:18;;;;;;;;;;;23.20;34.80;;;;;;1621553;73;720;-67
2022/03/23 03:14:20;;;;;;;;;;;23.30;35.00;;;;;;1621500;73;700;-67
2022/03/23 03:16:22;;;;;;;;;;;23.20;34.90;;;;;;1621594;73;1119;-68
2022/03/23 03:18:24;;;;;;;;;;;23.30;35.00;;;;;;1620979;73;711;-67
2022/03/23 03:20:26;;;;;;;;;;;23.30;35.00;;;;;;1621526;73;700;-67
2022/03/23 03:22:28;;;;;;;;;;;23.20;35.00;;;;;;1621519;73;596;-66
2022/03/23 03:24:30;;;;;;;;;;;23.30;35.00;;;;;;1580526;74;721;-67
2022/03/23 03:26:32;;;;;;;;;;;23.40;35.10;;;;;;1621420;73;1939;-68
2022/03/23 03:28:34;;;;;;;;;;;23.40;35.00;;;;;;1621448;73;699;-68
2022/03/23 03:30:36;;;;;;;;;;;23.50;35.00;;;;;;1615701;72;748;-69
2022/03/23 03:32:38;;;;;;;;;;;23.50;35.20;;;;;;1605408;72;703;-68
2022/03/23 03:34:40;;;;;;;;;;;23.40;35.50;;;;;;1596744;73;737;-70
2022/03/23 03:36:41;;;;;;;;;;;23.30;36.00;;;;;;1619230;72;1166;-67
2022/03/23 03:38:44;;;;;;;;;;;23.30;36.10;;;;;;1598628;73;715;-65
2022/03/23 03:40:46;;;;;;;;;;;23.30;36.30;;;;;;1592842;74;697;-66
2022/03/23 03:42:47;;;;;;;;;;;23.20;36.40;;;;;;1618791;73;745;-65
2022/03/23 03:44:50;;;;;;;;;;;23.20;36.40;;;;;;1621584;73;1095;-67
2022/03/23 03:46:52;;;;;;;;;;;23.20;36.70;;;;;;1621384;73;1889;-66
2022/03/23 03:48:54;;;;;;;;;;;23.20;36.80;;;;;;1621566;73;742;-67
2022/03/23 03:50:56;;;;;;;;;;;23.20;37.00;;;;;;1622798;73;729;-67
2022/03/23 03:52:58;;;;;;;;;;;23.10;37.10;;;;;;1624484;73;699;-67
2022/03/23 03:55:00;;;;;;;;;;;23.20;37.10;;;;;;1620664;73;1139;-66
2022/03/23 03:57:02;;;;;;;;;;;23.10;37.10;;;;;;1621571;73;720;-66
2022/03/23 03:59:04;;;;;;;;;;;23.20;37.00;;;;;;1621492;73;576;-67
2022/03/23 04:01:05;;;;;;;;;;;23.20;37.00;;;;;;1621553;73;720;-68
2022/03/23 04:03:07;;;;;;;;;;;23.20;36.90;;;;;;1621491;73;685;-69
2022/03/23 04:05:09;;;;;;;;;;;23.20;36.90;;;;;;1620213;73;1143;-68
2022/03/23 04:07:11;;;;;;;;;;;23.20;36.80;;;;;;1619324;73;1939;-66
2022/03/23 04:09:13;;;;;;;;;;;23.20;36.90;;;;;;1592787;74;692;-66
2022/03/23 04:11:15;;;;;;;;;;;23.20;36.80;;;;;;1592855;74;711;-67
2022/03/23 04:13:17;;;;;;;;;;;23.20;36.90;;;;;;1619826;73;694;-66
2022/03/23 04:15:20;;;;;;;;;;;23.20;36.80;;;;;;1621426;73;1150;-70
2022/03/23 04:17:22;;;;;;;;;;;23.20;36.80;;;;;;1622038;73;690;-69
2022/03/23 04:19:24;;;;;;;;;;;23.20;36.80;;;;;;1621165;73;722;-67
2022/03/23 04:21:26;;;;;;;;;;;23.20;36.80;;;;;;1621485;73;789;-65
2022/03/23 04:23:28;;;;;;;;;;;23.20;36.90;;;;;;1611393;73;727;-65
2022/03/23 04:25:30;;;;;;;;;;;23.30;37.10;;;;;;1611441;73;1135;-66
2022/03/23 04:27:34;;;;;;;;;;;23.30;37.10;;;;;;1619276;72;1931;-66
2022/03/23 04:29:35;;;;;;;;;;;23.30;37.00;;;;;;1620993;72;647;-69
2022/03/23 04:31:37;;;;;;;;;;;23.30;37.00;;;;;;1619320;72;768;-66
2022/03/23 04:33:39;;;;;;;;;;;23.30;37.00;;;;;;1618718;72;594;-69
2022/03/23 04:35:41;;;;;;;;;;;23.30;37.00;;;;;;1613729;72;1135;-65
2022/03/23 04:37:43;;;;;;;;;;;23.30;36.90;;;;;;1617766;72;709;-66
2022/03/23 04:39:45;;;;;;;;;;;23.30;36.90;;;;;;1613304;72;726;-67
2022/03/23 04:41:47;;;;;;;;;;;23.40;36.90;;;;;;1612422;72;714;-66
2022/03/23 04:43:49;;;;;;;;;;;23.40;37.10;;;;;;1617232;72;721;-67
2022/03/23 04:45:51;;;;;;;;;;;23.30;37.20;;;;;;1616922;72;1164;-67
2022/03/23 04:47:53;;;;;;;;;;;23.30;37.10;;;;;;1609569;72;1939;-68
2022/03/23 04:49:55;;;;;;;;;;;23.30;37.10;;;;;;1609475;72;728;-70
2022/03/23 04:51:57;;;;;;;;;;;23.30;37.10;;;;;;1612602;72;726;-68
2022/03/23 04:54:00;;;;;;;;;;;23.30;37.00;;;;;;1617553;72;727;-72
2022/03/23 04:56:02;;;;;;;;;;;23.40;36.90;;;;;;1619498;72;1153;-69
2022/03/23 04:58:04;;;;;;;;;;;23.40;36.80;;;;;;1602363;73;826;-68
2022/03/23 05:00:10;;;;;;;;;;;23.50;36.90;;;;;;1618142;72;719;-67
2022/03/23 05:02:10;;;;;;;;;;;23.30;36.70;;;;;;1620640;73;1579;-67
2022/03/23 05:04:11;;;;;;;;;;;23.40;36.70;;;;;;1610254;73;695;-68
2022/03/23 05:06:14;;;;;;;;;;;23.40;36.80;;;;;;1621455;72;1120;-69
2022/03/23 05:08:15;;;;;;;;;;;23.30;36.70;;;;;;1621146;73;1888;-70
2022/03/23 05:10:17;;;;;;;;;;;23.40;36.70;;;;;;1621436;73;736;-67
2022/03/23 05:12:19;;;;;;;;;;;23.40;36.80;;;;;;1617034;72;715;-69
2022/03/23 05:14:21;;;;;;;;;;;23.40;36.70;;;;;;1620133;72;757;-67
2022/03/23 05:16:23;;;;;;;;;;;23.40;37.00;;;;;;1614759;72;1118;-67
2022/03/23 05:18:25;;;;;;;;;;;23.40;37.10;;;;;;1615351;72;797;-66
2022/03/23 05:20:27;;;;;;;;;;;23.40;37.00;;;;;;1618381;72;765;-69
2022/03/23 05:22:29;;;;;;;;;;;23.40;37.00;;;;;;1614106;72;692;-67
2022/03/23 05:24:31;;;;;;;;;;;23.40;36.90;;;;;;1618170;72;664;-66
2022/03/23 05:26:32;;;;;;;;;;;23.50;37.10;;;;;;1612228;72;1155;-69
2022/03/23 05:28:34;;;;;;;;;;;23.40;36.90;;;;;;1612851;72;1939;-68
2022/03/23 05:30:36;;;;;;;;;;;23.50;37.00;;;;;;1611975;72;644;-71
2022/03/23 05:32:39;;;;;;;;;;;23.40;36.80;;;;;;1619482;72;804;-65
2022/03/23 05:34:41;;;;;;;;;;;23.40;37.10;;;;;;1619375;72;652;-69
2022/03/23 05:36:43;;;;;;;;;;;23.50;37.30;;;;;;1608769;72;1160;-66
2022/03/23 05:38:44;;;;;;;;;;;23.50;37.30;;;;;;1609923;72;733;-67
2022/03/23 05:40:46;;;;;;;;;;;23.50;37.30;;;;;;1617649;72;740;-66
2022/03/23 05:42:49;;;;;;;;;;;23.50;37.30;;;;;;1616676;72;713;-66
2022/03/23 05:44:51;;;;;;;;;;;23.50;37.30;;;;;;1616002;72;1189;-66
2022/03/23 05:46:52;;;;;;;;;;;23.50;37.20;;;;;;1620363;72;1943;-66
2022/03/23 05:48:54;;;;;;;;;;;23.50;37.20;;;;;;1615070;72;736;-67
2022/03/23 05:50:56;;;;;;;;;;;23.60;37.20;;;;;;1614052;72;668;-68
2022/03/23 05:52:58;;;;;;;;;;;23.50;37.20;;;;;;1614655;72;708;-73
2022/03/23 05:55:01;;;;;;;;;;;23.60;37.10;;;;;;1608808;73;1128;-74
2022/03/23 05:57:03;;;;;;;;;;;23.60;36.80;;;;;;1594661;74;768;-71
2022/03/23 05:59:05;;;;;;;;;;;23.60;36.50;;;;;;1594658;74;574;-74
2022/03/23 06:01:07;;;;;;;;;;;23.70;36.50;;;;;;1594630;74;606;-70
2022/03/23 06:03:09;;;;;;;;;;;23.60;36.20;;;;;;1592952;74;822;-70
2022/03/23 06:05:10;;;;;;;;;;;23.60;36.20;;;;;;1614809;73;1154;-70
2022/03/23 06:07:12;;;;;;;;;;;23.60;36.20;;;;;;1621193;73;1927;-69
2022/03/23 06:09:14;;;;;;;;;;;23.60;36.10;;;;;;1621239;73;786;-70
2022/03/23 06:11:16;;;;;;;;;;;23.60;36.10;;;;;;1621162;73;651;-70
2022/03/23 06:13:18;;;;;;;;;;;23.50;36.10;;;;;;1620982;73;720;-72
2022/03/23 06:15:21;;;;;;;;;;;23.60;36.00;;;;;;1623326;73;1118;-72
2022/03/23 06:17:22;;;;;;;;;;;23.60;36.00;;;;;;1623332;73;702;-73
2022/03/23 06:19:24;;;;;;;;;;;23.60;36.00;;;;;;1623364;73;607;-73
2022/03/23 06:21:26;;;;;;;;;;;23.60;35.90;;;;;;1623432;73;577;-73
2022/03/23 06:23:28;;;;;;;;;;;23.60;35.90;;;;;;1620987;73;713;-73
2022/03/23 06:25:30;;;;;;;;;;;23.50;35.90;;;;;;1620323;73;1183;-68
2022/03/23 06:27:32;;;;;;;;;;;23.60;35.80;;;;;;1613937;73;1901;-75
2022/03/23 06:29:34;;;;;;;;;;;23.60;35.80;;;;;;1618304;73;727;-75
2022/03/23 06:31:36;;;;;;;;;;;23.60;35.80;;;;;;1619340;73;716;-74
2022/03/23 06:33:38;;;;;;;;;;;23.60;35.70;;;;;;1621903;73;690;-72
2022/03/23 06:35:40;;;;;;;;;;;23.60;35.80;;;;;;1622811;73;1165;-72
2022/03/23 06:37:42;;;;;;;;;;;23.60;35.70;;;;;;1623478;73;673;-73
2022/03/23 06:39:43;;;;;;;;;;;23.60;35.70;;;;;;1616939;73;577;-73
2022/03/23 06:41:45;;;;;;;;;;;23.60;35.70;;;;;;1601383;73;738;-72
2022/03/23 06:43:47;;;;;;;;;;;23.50;35.70;;;;;;1610217;73;720;-72
2022/03/23 06:45:49;;;;;;;;;;;23.60;35.60;;;;;;1594479;74;1156;-72
2022/03/23 06:47:51;;;;;;;;;;;23.60;35.70;;;;;;1609728;73;1935;-73
2022/03/23 06:49:53;;;;;;;;;;;23.50;35.60;;;;;;1597177;73;794;-72
2022/03/23 06:51:55;;;;;;;;;;;23.50;35.70;;;;;;1619878;73;768;-72
2022/03/23 06:53:56;;;;;;;;;;;23.60;35.70;;;;;;1619339;73;632;-71
2022/03/23 06:55:58;;;;;;;;;;;23.60;35.70;;;;;;1618189;72;1138;-74
2022/03/23 06:58:00;;;;;;;;;;;23.60;35.20;;;;;;1594731;74;728;-76
2022/03/23 07:00:06;;;;;;;;;;;23.50;35.10;;;;;;1594752;74;703;-72
2022/03/23 07:02:08;;;;;;;;;;;23.60;35.10;;;;;;1602741;73;1130;-73
2022/03/23 07:04:10;;;;;;;;;;;23.60;35.20;;;;;;1623398;73;730;-73
2022/03/23 07:06:11;;;;;;;;;;;23.50;35.20;;;;;;1623194;73;1102;-73
2022/03/23 07:10:34;;;;;;;;;;;23.50;35.30;;;;;;1619077;73;614;-74
2022/03/23 07:12:36;;;;;;;;;;;23.60;35.20;;;;;;1617994;73;808;-75
2022/03/23 07:14:38;;;;;;;;;;;23.60;35.20;;;;;;1621317;73;668;-74
2022/03/23 07:16:42;;;;;;;;;;;23.60;35.20;;;;;;1618434;73;1138;-74
2022/03/23 07:18:44;;;;;;;;;;;23.50;35.20;;;;;;1616924;73;1126;-74
2022/03/23 07:20:45;;;;;;;;;;;23.60;35.30;;;;;;1620947;73;731;-75
2022/03/23 07:22:47;;;;;;;;;;;23.60;35.30;;;;;;1618456;73;727;-72
2022/03/23 07:24:51;;;;;;;;;;;23.60;35.30;;;;;;1619153;73;1120;-75
2022/03/23 07:26:53;;;;;;;;;;;23.50;35.30;;;;;;1619097;73;709;-75
2022/03/23 07:28:56;;;;;;;;;;;23.60;35.30;;;;;;1611949;73;1934;-75
2022/03/23 07:30:58;;;;;;;;;;;23.60;35.30;;;;;;1607694;73;631;-73
2022/03/23 07:33:00;;;;;;;;;;;23.50;35.40;;;;;;1617626;73;683;-72
2022/03/23 07:35:02;;;;;;;;;;;23.50;35.30;;;;;;1622794;73;1164;-73
2022/03/23 07:37:04;;;;;;;;;;;23.60;35.30;;;;;;1612212;73;712;-73
2022/03/23 07:39:06;;;;;;;;;;;23.60;35.40;;;;;;1618002;73;728;-73
2022/03/23 07:41:08;;;;;;;;;;;23.50;35.30;;;;;;1622274;73;720;-74
2022/03/23 07:43:10;;;;;;;;;;;23.60;35.40;;;;;;1618688;73;780;-73
2022/03/23 07:45:13;;;;;;;;;;;23.60;35.30;;;;;;1621456;73;1121;-73
2022/03/23 07:47:15;;;;;;;;;;;23.60;35.40;;;;;;1615492;73;843;-73
2022/03/23 07:49:17;;;;;;;;;;;23.60;35.30;;;;;;1619651;73;1931;-74
2022/03/23 07:51:19;;;;;;;;;;;23.50;35.30;;;;;;1617646;73;713;-74
2022/03/23 07:53:20;;;;;;;;;;;23.60;35.30;;;;;;1617178;73;730;-73
2022/03/23 07:55:22;;;;;;;;;;;23.60;35.30;;;;;;1620463;72;1127;-73
2022/03/23 07:57:24;;;;;;;;;;;23.60;35.30;;;;;;1618975;73;740;-75
2022/03/23 07:59:26;;;;;;;;;;;23.60;35.30;;;;;;1622148;73;727;-69
2022/03/23 08:01:28;;;;;;;;;;;23.60;35.30;;;;;;1611976;73;743;-69
2022/03/23 08:03:30;;;;;;;;;;;23.70;35.50;;;;;;1604547;73;752;-68
2022/03/23 08:05:32;;;;;;;;;;;23.70;35.50;;;;;;1612449;73;1199;-69
2022/03/23 08:07:34;;;;;;;;;;;23.80;35.10;;;;;;1605191;73;699;-69
2022/03/23 08:09:36;;;;;;;;;;;23.90;35.30;;;;;;1605686;73;1939;-69
2022/03/23 08:11:38;;;;;;;;;;;24.00;34.70;;;;;;1605553;73;782;-68
2022/03/23 08:13:40;;;;;;;;;;;24.00;34.40;;;;;;1608665;73;734;-66
2022/03/23 08:15:42;;;;;;;;;;;24.30;34.20;;;;;;1607381;73;1135;-67
2022/03/23 08:17:44;;;;;;;;;;;24.40;33.60;;;;;;1617115;73;820;-68
2022/03/23 08:20:32;;;;;;;;;;;24.40;33.50;;;;;;1620689;73;707;-68
2022/03/23 08:21:51;;;;;;;;;;;24.50;33.30;;;;;;1614696;73;1451;-67
2022/03/23 08:23:53;;;;;;;;;;;24.50;32.70;;;;;;1613586;73;987;-68
2022/03/23 08:25:55;;;;;;;;;;;24.40;32.90;;;;;;1610873;73;1207;-67
2022/03/23 08:27:57;;;;;;;;;;;24.40;32.90;;;;;;1623088;73;1933;-69
2022/03/23 08:29:59;;;;;;;;;;;24.50;32.90;;;;;;1612117;73;711;-67
2022/03/23 08:32:01;;;;;;;;;;;24.50;32.80;;;;;;1619763;73;606;-68
2022/03/23 08:34:04;;;;;;;;;;;24.60;32.40;;;;;;1616505;73;928;-68
2022/03/23 08:36:06;;;;;;;;;;;24.60;32.50;;;;;;1612611;73;1176;-67
2022/03/23 08:38:08;;;;;;;;;;;24.60;32.10;;;;;;1605521;73;754;-68
2022/03/23 08:40:10;;;;;;;;;;;24.60;31.40;;;;;;1609705;72;739;-67
2022/03/23 08:42:12;;;;;;;;;;;24.60;31.70;;;;;;1613713;73;666;-67
2022/03/23 08:44:14;;;;;;;;;;;24.70;32.00;;;;;;1616416;73;732;-67
2022/03/23 08:46:16;;;;;;;;;;;24.70;31.60;;;;;;1605067;72;1129;-68
2022/03/23 08:48:21;;;;;;;;;;;24.80;31.70;;;;;;1604890;73;1904;-68
2022/03/23 08:50:23;;;;;;;;;;;24.90;31.50;;;;;;1617662;73;730;-68
2022/03/23 08:52:25;;;;;;;;;;;25.00;31.50;;;;;;1619162;73;728;-67
2022/03/23 08:54:27;;;;;;;;;;;24.90;31.20;;;;;;1605275;73;783;-68
2022/03/23 08:56:29;;;;;;;;;;;25.00;31.20;;;;;;1596852;73;1176;-68
2022/03/23 08:58:31;;;;;;;;;;;25.00;31.00;;;;;;1604989;73;732;-68
2022/03/23 09:00:33;;;;;;;;;;;25.00;30.90;;;;;;1605794;73;658;-67
2022/03/23 09:02:35;;;;;;;;;;;25.10;30.70;;;;;;1605921;73;750;-68
2022/03/23 09:04:37;;;;;;;;;;;25.00;30.70;;;;;;1621012;73;713;-69
2022/03/23 09:06:39;;;;;;;;;;;25.00;30.70;;;;;;1607556;73;1118;-68
2022/03/23 09:08:41;;;;;;;;;;;25.00;30.50;;;;;;1606094;73;1928;-68
2022/03/23 09:10:42;;;;;;;;;;;25.00;30.30;;;;;;1605193;73;729;-68
2022/03/23 09:12:44;;;;;;;;;;;25.00;30.10;;;;;;1607139;73;736;-69
2022/03/23 09:14:46;;;;;;;;;;;25.10;30.10;;;;;;1612067;73;1146;-68
2022/03/23 09:16:48;;;;;;;;;;;25.10;30.00;;;;;;1610033;73;709;-69
2022/03/23 09:18:50;;;;;;;;;;;25.00;30.00;;;;;;1615371;73;734;-68
2022/03/23 09:20:52;;;;;;;;;;;25.00;29.80;;;;;;1612526;73;815;-67
2022/03/23 09:22:55;;;;;;;;;;;25.00;29.70;;;;;;1605002;73;663;-69
2022/03/23 09:24:57;;;;;;;;;;;25.00;29.70;;;;;;1614966;72;1148;-67
2022/03/23 09:26:59;;;;;;;;;;;25.00;29.80;;;;;;1609858;73;712;-68
2022/03/23 09:29:00;;;;;;;;;;;25.00;29.60;;;;;;1609554;73;1941;-69
2022/03/23 09:31:02;;;;;;;;;;;25.10;29.70;;;;;;1605299;73;711;-69
2022/03/23 09:33:04;;;;;;;;;;;25.10;29.50;;;;;;1602906;73;805;-69
2022/03/23 09:35:07;;;;;;;;;;;25.00;29.40;;;;;;1618361;72;1148;-67
2022/03/23 09:39:28;;;;;;;;;;;25.00;29.40;;;;;;1613108;73;662;-67
2022/03/23 09:41:31;;;;;;;;;;;25.00;29.30;;;;;;1615474;72;744;-69
2022/03/23 09:43:33;;;;;;;;;;;25.00;29.20;;;;;;1609684;73;771;-68
2022/03/23 09:47:38;;;;;;;;;;;25.00;28.50;;;;;;1608473;73;751;-69
2022/03/23 09:49:40;;;;;;;;;;;25.00;28.80;;;;;;1615086;73;1914;-67
2022/03/23 09:51:42;;;;;;;;;;;25.00;28.50;;;;;;1617520;73;693;-69
2022/03/23 09:53:44;;;;;;;;;;;24.80;28.60;;;;;;1618571;73;652;-68
2022/03/23 09:55:46;;;;;;;;;;;24.80;28.80;;;;;;1617512;73;1144;-69
2022/03/23 09:57:48;;;;;;;;;;;24.90;29.00;;;;;;1616944;73;940;-69
2022/03/23 09:59:50;;;;;;;;;;;24.80;29.00;;;;;;1609939;73;712;-69
2022/03/23 10:01:53;;;;;;;;;;;24.80;29.20;;;;;;1619557;73;729;-69
2022/03/23 10:04:08;;;;;;;;;;;24.80;29.00;;;;;;1614712;73;723;-69
2022/03/23 10:06:14;;;;;;;;;;;24.80;29.00;;;;;;1605292;72;1155;-68
2022/03/23 10:08:34;;;;;;;;;;;24.80;28.70;;;;;;1611893;73;703;-69
2022/03/23 10:10:42;;;;;;;;;;;24.70;28.70;;;;;;1621814;73;614;-68
2022/03/23 10:12:54;;;;;;;;;;;24.70;28.80;;;;;;1615371;73;1619;-68
2022/03/23 10:15:15;;;;;;;;;;;24.70;28.60;;;;;;1605589;73;1120;-68
2022/03/23 10:17:35;;;;;;;;;;;24.70;28.30;;;;;;1602603;73;684;-69
2022/03/23 10:19:44;;;;;;;;;;;24.50;28.00;;;;;;1606099;73;728;-69
2022/03/23 10:21:45;;;;;;;;;;;24.50;28.10;;;;;;1613501;73;630;-69
2022/03/23 10:24:02;;;;;;;;;;;24.50;28.20;;;;;;1603609;73;725;-70
2022/03/23 10:26:14;;;;;;;;;;;24.40;28.20;;;;;;1606167;73;1137;-68
2022/03/23 10:28:16;;;;;;;;;;;24.50;28.10;;;;;;1607092;73;684;-68
2022/03/23 10:30:18;;;;;;;;;;;24.50;27.90;;;;;;1598751;73;1929;-70
2022/03/23 10:32:23;;;;;;;;;;;24.30;27.40;;;;;;1603786;73;712;-66
2022/03/23 10:34:24;;;;;;;;;;;24.30;27.00;;;;;;1606896;73;767;-69
2022/03/23 10:36:29;;;;;;;;;;;24.30;26.80;;;;;;1620798;73;1168;-69
2022/03/23 10:38:32;;;;;;;;;;;24.30;26.80;;;;;;1618485;73;1010;-67
2022/03/23 10:40:34;;;;;;;;;;;24.20;26.70;;;;;;1616383;73;1591;-68
2022/03/23 10:42:37;;;;;;;;;;;24.20;26.90;;;;;;1613882;73;717;-68
2022/03/23 10:44:39;;;;;;;;;;;24.20;26.80;;;;;;1619819;73;639;-68
2022/03/23 10:46:41;;;;;;;;;;;24.20;27.00;;;;;;1615268;72;1063;-67
2022/03/23 10:49:02;;;;;;;;;;;24.20;27.00;;;;;;1606600;73;1902;-67
2022/03/23 10:51:04;;;;;;;;;;;24.20;26.90;;;;;;1604222;73;1826;-67
2022/03/23 10:53:06;;;;;;;;;;;24.10;27.10;;;;;;1616650;73;754;-69
2022/03/23 10:55:10;;;;;;;;;;;24.10;25.50;;;;;;1616808;73;1155;-68
2022/03/23 10:57:13;;;;;;;;;;;24.10;26.30;;;;;;1606310;73;696;-68
2022/03/23 10:59:25;;;;;;;;;;;24.10;26.30;;;;;;1606907;73;760;-69
2022/03/23 11:01:23;;;;;;;;;;;24.10;26.30;;;;;;1612738;73;1617;-68
2022/03/23 11:03:36;;;;;;;;;;;24.10;25.80;;;;;;1610123;73;805;-69
2022/03/23 11:05:38;;;;;;;;;;;24.00;25.80;;;;;;1593576;73;1173;-70
2022/03/23 11:07:40;;;;;;;;;;;24.00;25.70;;;;;;1606721;73;737;-67
2022/03/23 11:16:48;;;;;;;;;;;23.90;24.20;;;;;;1613281;73;1187;-67
2022/03/23 11:18:50;;;;;;;;;;;23.90;24.30;;;;;;1597218;73;679;-67
2022/03/23 11:20:53;;;;;;;;;;;23.90;24.00;;;;;;1579405;73;774;-67
2022/03/23 11:22:56;;;;;;;;;;;23.70;23.60;;;;;;1603153;73;695;-68
2022/03/23 11:24:58;;;;;;;;;;;23.80;23.80;;;;;;1610445;73;1152;-66
2022/03/23 11:27:00;;;;;;;;;;;23.80;23.70;;;;;;1614216;72;696;-68
2022/03/23 11:29:03;;;;;;;;;;;23.70;23.60;;;;;;1610433;72;1901;-67
2022/03/23 11:31:08;;;;;;;;;;;23.70;22.80;;;;;;1611608;72;724;-67
2022/03/23 11:33:11;;;;;;;;;;;23.70;21.30;;;;;;1608970;72;753;-67
2022/03/23 11:35:13;;;;;;;;;;;23.70;22.80;;;;;;1615169;72;1143;-67
2022/03/23 11:37:15;;;;;;;;;;;23.70;22.20;;;;;;1613735;72;595;-67
2022/03/23 11:39:17;;;;;;;;;;;23.70;23.10;;;;;;1619165;72;664;-67
2022/03/23 11:41:19;;;;;;;;;;;23.60;23.00;;;;;;1577526;73;669;-67
2022/03/23 11:43:22;;;;;;;;;;;23.70;23.40;;;;;;1550742;76;624;-67
2022/03/23 11:45:24;;;;;;;;;;;23.70;22.90;;;;;;1549697;75;1149;-66
2022/03/23 11:47:33;;;;;;;;;;;23.60;22.80;;;;;;1576246;74;724;-68
2022/03/23 11:49:40;;;;;;;;;;;23.60;23.00;;;;;;1581079;74;1935;-68
2022/03/23 11:51:49;;;;;;;;;;;23.60;23.40;;;;;;1578425;74;672;-68
2022/03/23 11:53:53;;;;;;;;;;;23.60;23.70;;;;;;1574025;74;628;-66
2022/03/23 11:55:55;;;;;;;;;;;23.60;23.90;;;;;;1572460;74;1377;-68
2022/03/23 11:57:59;;;;;;;;;;;23.60;24.10;;;;;;1580100;74;753;-66
2022/03/23 12:00:00;;;;;;;;;;;23.70;24.20;;;;;;1565047;74;736;-67
2022/03/23 12:02:03;;;;;;;;;;;23.60;24.20;;;;;;1571163;74;715;-68
2022/03/23 12:04:05;;;;;;;;;;;23.60;24.40;;;;;;1576367;74;733;-69
2022/03/23 12:06:09;;;;;;;;;;;23.60;24.40;;;;;;1571049;74;1173;-68
2022/03/23 12:08:11;;;;;;;;;;;23.60;24.50;;;;;;1570473;74;1057;-65
2022/03/23 12:10:22;;;;;;;;;;;23.70;24.80;;;;;;1570316;75;1941;-66
2022/03/23 12:12:38;;;;;;;;;;;23.70;25.00;;;;;;1570538;74;788;-67
2022/03/23 12:14:38;;;;;;;;;;;23.80;25.70;;;;;;1570725;74;1474;-62
2022/03/23 12:16:48;;;;;;;;;;;23.70;26.00;;;;;;1581481;75;1116;-68
2022/03/23 12:18:59;;;;;;;;;;;23.90;25.70;;;;;;1575477;74;708;-62
2022/03/23 12:21:01;;;;;;;;;;;23.90;25.80;;;;;;1579915;74;730;-63
2022/03/23 12:23:05;;;;;;;;;;;23.90;25.70;;;;;;1571509;75;617;-66
2022/03/23 12:25:09;;;;;;;;;;;24.00;26.00;;;;;;1563843;74;1155;-61
2022/03/23 12:27:29;;;;;;;;;;;23.90;26.20;;;;;;1569425;74;758;-63
2022/03/23 12:29:35;;;;;;;;;;;23.80;26.30;;;;;;1587562;74;1910;-63
2022/03/23 12:31:37;;;;;;;;;;;23.80;26.40;;;;;;1557545;75;1558;-62
2022/03/23 12:33:57;;;;;;;;;;;23.70;26.60;;;;;;1579395;74;721;-65
2022/03/23 12:36:02;;;;;;;;;;;23.70;26.70;;;;;;1568663;75;1172;-63
2022/03/23 12:38:04;;;;;;;;;;;23.70;26.90;;;;;;1594468;74;746;-63